Time;durP1;ratioP1;P1;durP2;ratioP2;P2;SDS_P1;SDS_P2;PMS_P1;PMS_P2;Temp;Humidity;BMP_temperature;BMP_pressure;BME280_temperature;BME280_humidity;BME280_pressure;Samples;Min_cycle;Max_cycle;Signal;HPM_P1;HPM_P2
2023/12/28 00:01:52;;;;;;;5.03;3.58;;;9.30;99.90;;;;;;5093752;28;20098;-81
2023/12/28 00:04:19;;;;;;;7.28;3.70;;;9.30;99.90;;;;;;5094468;28;20093;-79
2023/12/28 00:06:46;;;;;;;5.53;3.00;;;9.30;99.90;;;;;;5094690;28;20104;-80
2023/12/28 00:09:13;;;;;;;5.95;3.35;;;9.30;99.90;;;;;;5091813;28;20047;-80
2023/12/28 00:11:40;;;;;;;6.40;3.45;;;9.30;99.90;;;;;;5094481;28;20044;-80
2023/12/28 00:14:07;;;;;;;4.00;2.90;;;9.30;99.90;;;;;;5094625;28;20054;-80
2023/12/28 00:16:36;;;;;;;6.50;3.00;;;9.30;99.90;;;;;;5093758;28;20438;-80
2023/12/28 00:19:05;;;;;;;5.63;2.75;;;9.30;99.90;;;;;;5094453;28;20056;-80
2023/12/28 00:21:31;;;;;;;6.68;3.10;;;9.30;99.90;;;;;;5094270;28;20048;-80
2023/12/28 00:23:58;;;;;;;5.88;3.08;;;9.30;99.90;;;;;;5093823;28;20454;-80
2023/12/28 00:26:25;;;;;;;4.47;2.92;;;9.30;99.90;;;;;;5093887;28;20047;-80
2023/12/28 00:28:52;;;;;;;5.32;3.35;;;9.30;99.90;;;;;;5094177;28;20051;-80
2023/12/28 00:31:19;;;;;;;4.65;2.90;;;9.30;99.90;;;;;;5093360;28;20043;-80
2023/12/28 00:33:46;;;;;;;5.30;2.90;;;9.30;99.90;;;;;;5094076;28;20097;-80
2023/12/28 00:36:14;;;;;;;6.78;3.35;;;9.30;99.90;;;;;;5092848;28;20044;-81
2023/12/28 00:38:41;;;;;;;5.70;3.10;;;9.50;99.90;;;;;;5093017;28;20113;-79
2023/12/28 00:41:08;;;;;;;5.47;3.58;;;9.30;99.90;;;;;;5093588;28;20094;-79
2023/12/28 00:43:35;;;;;;;9.60;3.55;;;9.30;99.90;;;;;;5093919;28;20044;-79
2023/12/28 00:46:02;;;;;;;5.22;3.25;;;9.30;99.90;;;;;;5093354;28;20044;-79
2023/12/28 00:48:29;;;;;;;4.63;3.00;;;9.30;99.90;;;;;;5093527;28;20044;-79
2023/12/28 00:50:58;;;;;;;9.15;3.20;;;9.30;99.90;;;;;;5093033;28;20541;-81
2023/12/28 00:53:27;;;;;;;9.73;3.83;;;9.30;99.90;;;;;;5093191;28;20514;-80
2023/12/28 00:55:54;;;;;;;5.78;3.40;;;9.20;99.90;;;;;;5093680;28;20416;-81
2023/12/28 00:58:21;;;;;;;8.13;3.08;;;9.20;99.90;;;;;;5090733;28;20360;-80
2023/12/28 01:00:48;;;;;;;7.57;3.38;;;9.20;99.90;;;;;;5093447;28;20044;-81
2023/12/28 01:03:15;;;;;;;6.38;3.17;;;9.40;99.90;;;;;;5093541;28;20080;-81
2023/12/28 01:05:41;;;;;;;6.93;3.58;;;9.10;99.90;;;;;;5090486;28;20101;-81
2023/12/28 01:08:08;;;;;;;5.80;3.55;;;9.20;99.90;;;;;;5093339;28;20056;-79
2023/12/28 01:10:37;;;;;;;7.32;2.95;;;9.20;99.90;;;;;;5093487;28;20090;-81
2023/12/28 01:13:04;;;;;;;8.02;3.38;;;9.10;99.90;;;;;;5092697;28;20059;-80
2023/12/28 01:15:31;;;;;;;6.43;3.10;;;9.20;99.90;;;;;;5093683;28;20055;-80
2023/12/28 01:17:58;;;;;;;6.95;3.33;;;9.20;99.90;;;;;;5093205;28;20412;-81
2023/12/28 01:20:25;;;;;;;7.93;3.47;;;9.20;99.90;;;;;;5092546;28;20040;-80
2023/12/28 01:22:52;;;;;;;9.45;3.22;;;9.20;99.90;;;;;;5093101;28;20055;-80
2023/12/28 01:25:18;;;;;;;11.38;3.00;;;9.20;99.90;;;;;;5093188;28;20055;-81
2023/12/28 01:27:47;;;;;;;10.55;3.33;;;9.10;99.90;;;;;;5093443;28;20504;-80
2023/12/28 01:30:13;;;;;;;10.63;3.40;;;9.20;99.90;;;;;;5092621;28;20044;-80
2023/12/28 01:32:40;;;;;;;10.50;2.75;;;9.20;99.90;;;;;;5092794;28;20044;-80
2023/12/28 01:35:08;;;;;;;8.75;3.50;;;9.10;99.90;;;;;;5092144;28;20048;-80
2023/12/28 01:37:35;;;;;;;10.55;3.90;;;9.10;99.90;;;;;;5090450;28;20048;-81
2023/12/28 01:40:02;;;;;;;11.23;3.35;;;9.00;99.90;;;;;;5092403;28;20098;-80
2023/12/28 01:42:30;;;;;;;6.35;3.15;;;9.00;99.90;;;;;;5092853;28;20138;-81
2023/12/28 01:44:58;;;;;;;9.07;3.97;;;8.90;99.90;;;;;;5092638;28;20055;-81
2023/12/28 01:47:26;;;;;;;12.77;3.90;;;9.00;99.90;;;;;;5091778;28;20051;-80
2023/12/28 01:49:53;;;;;;;10.05;3.13;;;8.90;99.90;;;;;;5090180;28;20047;-80
2023/12/28 01:52:21;;;;;;;9.70;3.45;;;8.90;99.90;;;;;;5092536;28;21282;-80
2023/12/28 01:54:48;;;;;;;18.98;4.43;;;8.90;99.90;;;;;;5091569;28;20503;-79
2023/12/28 01:57:16;;;;;;;13.48;4.05;;;8.90;99.90;;;;;;5092237;28;20040;-79
2023/12/28 01:59:43;;;;;;;7.95;3.22;;;9.00;99.90;;;;;;5092255;28;20052;-78
2023/12/28 02:02:12;;;;;;;8.57;3.58;;;8.90;99.90;;;;;;5091173;28;20047;-78
2023/12/28 02:04:39;;;;;;;11.13;3.50;;;8.90;99.90;;;;;;5092352;28;20396;-79
2023/12/28 02:07:07;;;;;;;7.68;3.13;;;9.00;99.90;;;;;;5092346;28;20101;-79
2023/12/28 02:09:34;;;;;;;10.18;3.20;;;9.10;99.90;;;;;;5091573;28;20105;-79
2023/12/28 02:12:01;;;;;;;8.27;3.17;;;9.00;99.90;;;;;;5092374;28;20438;-79
2023/12/28 02:14:29;;;;;;;15.13;3.42;;;9.00;99.90;;;;;;5089870;28;20097;-80
2023/12/28 02:17:04;;;;;;;6.88;3.42;;;8.90;99.90;;;;;;5091528;28;20056;-79
2023/12/28 02:19:45;;;;;;;12.20;3.55;;;8.90;99.90;;;;;;5091824;28;20052;-79
2023/12/28 02:22:15;;;;;;;11.00;3.55;;;8.90;99.90;;;;;;5091833;28;20048;-79
2023/12/28 02:25:07;;;;;;;10.73;3.03;;;8.90;99.90;;;;;;5091662;28;20074;-79
2023/12/28 02:27:36;;;;;;;9.52;4.03;;;8.90;99.90;;;;;;5086383;28;20048;-81
2023/12/28 02:30:04;;;;;;;11.70;3.05;;;8.90;99.90;;;;;;5090885;28;20585;-81
2023/12/28 02:32:40;;;;;;;10.27;3.50;;;8.90;99.90;;;;;;5091811;28;20055;-80
2023/12/28 02:35:17;;;;;;;8.23;2.72;;;8.90;99.90;;;;;;5091919;28;20047;-80
2023/12/28 02:37:46;;;;;;;8.95;3.25;;;8.90;99.90;;;;;;5091238;28;20450;-80
2023/12/28 02:40:16;;;;;;;8.13;3.10;;;8.90;99.90;;;;;;5091842;28;20098;-80
2023/12/28 02:42:43;;;;;;;13.20;3.70;;;8.90;99.90;;;;;;5091736;28;20055;-80
2023/12/28 02:45:10;;;;;;;14.15;3.60;;;8.90;99.90;;;;;;5091125;28;20097;-80
2023/12/28 02:47:37;;;;;;;11.73;3.55;;;9.00;99.90;;;;;;5091396;28;20079;-80
2023/12/28 02:50:05;;;;;;;10.57;3.13;;;9.10;99.90;;;;;;5091150;28;20089;-81
2023/12/28 02:52:31;;;;;;;13.55;3.83;;;9.10;99.90;;;;;;5090884;28;20054;-81
2023/12/28 02:54:58;;;;;;;15.27;3.25;;;9.10;99.90;;;;;;5090901;28;20052;-81
2023/12/28 02:57:27;;;;;;;9.77;2.92;;;9.20;99.90;;;;;;5090146;28;20531;-81
2023/12/28 02:59:53;;;;;;;9.00;3.10;;;9.30;99.90;;;;;;5092066;28;20040;-81
2023/12/28 03:02:20;;;;;;;11.05;3.38;;;9.40;99.90;;;;;;5089408;28;20074;-81
2023/12/28 03:04:47;;;;;;;6.20;2.78;;;9.40;99.90;;;;;;5090891;28;20052;-81
2023/12/28 03:07:14;;;;;;;9.65;3.17;;;9.40;99.90;;;;;;5091829;28;20044;-81
2023/12/28 03:09:41;;;;;;;9.75;3.03;;;9.40;99.90;;;;;;5091626;28;20044;-81
2023/12/28 03:12:08;;;;;;;8.98;2.80;;;9.50;99.90;;;;;;5091085;28;20070;-80
2023/12/28 03:14:36;;;;;;;14.52;3.20;;;9.50;99.90;;;;;;5092073;28;20406;-81
2023/12/28 03:17:03;;;;;;;12.38;3.40;;;9.60;99.90;;;;;;5092220;28;20068;-80
2023/12/28 03:19:30;;;;;;;8.80;3.22;;;9.60;99.90;;;;;;5093026;28;20055;-80
2023/12/28 03:21:57;;;;;;;9.60;3.25;;;9.70;99.90;;;;;;5092573;28;20075;-80
2023/12/28 03:24:24;;;;;;;9.25;3.83;;;9.70;99.90;;;;;;5092947;28;20094;-80
2023/12/28 03:26:51;;;;;;;11.10;3.70;;;9.70;99.90;;;;;;5086263;28;20093;-80
2023/12/28 03:29:17;;;;;;;6.65;2.70;;;9.80;99.90;;;;;;5091140;28;20043;-81
2023/12/28 03:31:46;;;;;;;11.85;2.92;;;9.80;99.90;;;;;;5088599;28;20534;-81
2023/12/28 03:34:13;;;;;;;14.18;3.35;;;9.90;99.90;;;;;;5090497;28;20060;-81
2023/12/28 03:36:40;;;;;;;9.70;3.08;;;9.80;99.90;;;;;;5091341;28;20048;-80
2023/12/28 03:39:06;;;;;;;7.82;3.88;;;9.90;99.90;;;;;;5090994;28;20099;-81
2023/12/28 03:41:33;;;;;;;7.45;2.97;;;10.10;99.90;;;;;;5090078;28;20047;-80
2023/12/28 03:44:00;;;;;;;11.23;3.08;;;10.00;99.90;;;;;;5090866;28;20048;-80
2023/12/28 03:46:27;;;;;;;9.88;2.47;;;10.00;99.90;;;;;;5090793;28;20052;-80
2023/12/28 03:48:55;;;;;;;6.70;2.85;;;10.00;99.90;;;;;;5090565;28;20093;-81
2023/12/28 03:51:23;;;;;;;12.90;3.72;;;10.00;99.90;;;;;;5091986;28;20047;-81
2023/12/28 03:53:50;;;;;;;12.80;3.90;;;10.00;99.90;;;;;;5089894;28;20047;-80
2023/12/28 03:56:22;;;;;;;7.43;2.35;;;10.00;99.90;;;;;;5090703;28;20048;-81
2023/12/28 03:58:49;;;;;;;9.55;2.50;;;10.00;99.90;;;;;;5088407;28;20048;-80
2023/12/28 04:01:17;;;;;;;11.13;2.55;;;10.00;99.90;;;;;;5090343;28;20048;-81
2023/12/28 04:03:44;;;;;;;5.57;2.63;;;10.00;99.90;;;;;;5088105;28;20132;-80
2023/12/28 04:06:13;;;;;;;12.05;2.90;;;10.10;99.90;;;;;;5090891;28;20052;-80
2023/12/28 04:08:40;;;;;;;12.65;2.67;;;10.00;99.90;;;;;;5090448;28;20076;-81
2023/12/28 04:11:07;;;;;;;12.57;3.75;;;10.10;99.90;;;;;;5092382;28;20047;-81
2023/12/28 04:13:34;;;;;;;9.43;3.05;;;10.10;99.90;;;;;;5094572;28;20450;-80
2023/12/28 04:16:01;;;;;;;8.55;2.92;;;10.20;99.90;;;;;;5094289;28;20066;-81
2023/12/28 04:18:28;;;;;;;13.02;3.30;;;10.30;99.90;;;;;;5094604;28;20155;-81
2023/12/28 04:20:55;;;;;;;7.97;3.08;;;10.20;99.90;;;;;;5094460;28;20051;-81
2023/12/28 04:23:24;;;;;;;6.20;3.00;;;10.20;99.90;;;;;;5093797;28;20133;-83
2023/12/28 04:25:50;;;;;;;8.75;3.03;;;10.20;99.90;;;;;;5093990;28;20442;-82
2023/12/28 04:28:17;;;;;;;8.60;3.35;;;10.20;99.90;;;;;;5094081;28;20469;-81
2023/12/28 04:30:44;;;;;;;8.32;2.50;;;10.30;99.90;;;;;;5093213;28;20438;-81
2023/12/28 04:33:11;;;;;;;15.05;3.97;;;10.20;99.90;;;;;;5093950;28;20504;-82
2023/12/28 04:35:38;;;;;;;9.88;2.55;;;10.20;99.90;;;;;;5093871;28;20502;-81
2023/12/28 04:38:05;;;;;;;9.52;3.35;;;10.20;99.90;;;;;;5093120;28;20089;-81
2023/12/28 04:40:33;;;;;;;10.20;3.00;;;10.30;99.90;;;;;;5093649;28;20048;-81
2023/12/28 04:43:00;;;;;;;15.07;2.90;;;10.20;99.90;;;;;;5093202;28;20079;-81
2023/12/28 04:45:27;;;;;;;10.90;3.38;;;10.30;99.90;;;;;;5093424;28;20093;-81
2023/12/28 04:47:54;;;;;;;9.32;2.95;;;10.50;99.90;;;;;;5091799;28;20071;-81
2023/12/28 04:50:21;;;;;;;13.40;3.25;;;10.30;99.90;;;;;;5092602;28;20047;-81
2023/12/28 04:52:48;;;;;;;11.32;3.25;;;10.30;99.90;;;;;;5093940;28;20492;-81
2023/12/28 04:55:15;;;;;;;11.25;3.40;;;10.30;99.90;;;;;;5093154;28;20453;-82
2023/12/28 04:57:43;;;;;;;10.75;3.20;;;10.20;99.90;;;;;;5093052;28;20044;-81
2023/12/28 05:00:11;;;;;;;10.27;3.10;;;10.30;99.90;;;;;;5091639;28;20054;-81
2023/12/28 05:02:38;;;;;;;10.55;3.33;;;10.30;99.90;;;;;;5093538;28;20052;-79
2023/12/28 05:05:05;;;;;;;10.55;2.90;;;10.20;99.90;;;;;;5093058;28;20129;-79
2023/12/28 05:07:32;;;;;;;9.70;2.95;;;10.20;99.90;;;;;;5093428;28;20094;-80
2023/12/28 05:09:59;;;;;;;12.73;3.15;;;10.30;99.90;;;;;;5093335;28;20055;-83
2023/12/28 05:12:26;;;;;;;9.73;2.85;;;10.40;99.90;;;;;;5090028;28;20093;-80
2023/12/28 05:14:54;;;;;;;15.98;3.28;;;10.60;99.90;;;;;;5093183;28;20101;-82
2023/12/28 05:17:21;;;;;;;19.52;3.28;;;10.40;99.90;;;;;;5093456;28;20040;-81
2023/12/28 05:19:48;;;;;;;10.93;3.53;;;10.30;99.90;;;;;;5092510;28;20093;-79
2023/12/28 05:22:15;;;;;;;20.70;3.50;;;10.30;99.90;;;;;;5092426;28;20495;-81
2023/12/28 05:24:42;;;;;;;19.10;3.80;;;10.30;99.90;;;;;;5091129;28;20055;-81
2023/12/28 05:27:08;;;;;;;11.63;3.42;;;10.30;99.90;;;;;;5092549;28;20117;-81
2023/12/28 05:29:35;;;;;;;15.10;3.45;;;10.30;99.90;;;;;;5090999;28;20052;-81
2023/12/28 05:32:04;;;;;;;13.02;3.53;;;10.40;99.90;;;;;;5092158;28;20063;-81
2023/12/28 05:34:31;;;;;;;14.30;3.00;;;10.30;99.90;;;;;;5092710;28;20048;-81
2023/12/28 05:36:58;;;;;;;11.85;2.90;;;10.30;99.90;;;;;;5094054;28;20442;-80
2023/12/28 05:39:24;;;;;;;11.07;2.38;;;10.40;99.90;;;;;;5092048;28;20097;-80
2023/12/28 05:41:51;;;;;;;9.30;3.55;;;10.40;99.90;;;;;;5093023;28;20047;-79
2023/12/28 05:44:18;;;;;;;12.70;2.88;;;10.40;99.90;;;;;;5092579;28;20048;-80
2023/12/28 05:46:45;;;;;;;12.38;3.20;;;10.40;99.90;;;;;;5092258;28;20514;-78
2023/12/28 05:49:14;;;;;;;13.05;3.78;;;10.40;99.90;;;;;;5090195;28;20074;-80
2023/12/28 05:51:41;;;;;;;16.98;3.08;;;10.50;99.90;;;;;;5092491;28;20066;-80
2023/12/28 05:54:09;;;;;;;9.38;2.95;;;10.50;99.90;;;;;;5092163;28;20168;-79
2023/12/28 05:56:36;;;;;;;9.88;2.70;;;10.70;99.90;;;;;;5092213;28;20087;-79
2023/12/28 05:59:03;;;;;;;12.55;3.47;;;10.40;99.90;;;;;;5092581;28;20105;-79
2023/12/28 06:01:30;;;;;;;20.48;3.85;;;10.40;99.90;;;;;;5089750;28;20066;-79
2023/12/28 06:03:56;;;;;;;14.98;4.22;;;10.30;99.90;;;;;;5093483;28;20125;-79
2023/12/28 06:06:25;;;;;;;12.45;3.08;;;10.30;99.90;;;;;;5092361;28;20051;-79
2023/12/28 06:08:52;;;;;;;11.98;3.60;;;10.40;99.90;;;;;;5091842;28;20112;-79
2023/12/28 06:11:19;;;;;;;16.95;3.88;;;10.30;99.90;;;;;;5093132;28;20403;-80
2023/12/28 06:13:46;;;;;;;11.27;3.42;;;10.20;99.90;;;;;;5089702;28;20044;-79
2023/12/28 06:16:13;;;;;;;12.43;3.75;;;10.20;99.90;;;;;;5091248;28;20109;-79
2023/12/28 06:18:39;;;;;;;11.00;3.08;;;10.40;99.90;;;;;;5092192;28;20055;-79
2023/12/28 06:21:08;;;;;;;16.65;3.97;;;10.30;99.90;;;;;;5091630;28;20040;-79
2023/12/28 06:23:37;;;;;;;13.82;3.25;;;10.30;99.90;;;;;;5091532;28;20048;-79
2023/12/28 06:26:07;;;;;;;16.65;3.38;;;10.30;99.90;;;;;;5089692;28;20113;-79
2023/12/28 06:28:34;;;;;;;17.55;3.33;;;10.30;99.90;;;;;;5091326;28;20081;-80
2023/12/28 06:31:03;;;;;;;23.98;3.45;;;10.30;99.90;;;;;;5090485;28;20056;-80
2023/12/28 06:33:30;;;;;;;9.73;3.13;;;10.30;99.90;;;;;;5089129;28;20134;-80
2023/12/28 06:35:57;;;;;;;8.35;3.15;;;10.30;99.90;;;;;;5091196;28;20059;-78
2023/12/28 06:38:25;;;;;;;15.45;3.53;;;10.30;99.90;;;;;;5091549;28;20052;-80
2023/12/28 06:40:53;;;;;;;16.58;4.22;;;10.40;99.90;;;;;;5091386;28;20078;-82
2023/12/28 06:43:20;;;;;;;14.48;3.58;;;10.40;99.90;;;;;;5091121;28;20048;-82
2023/12/28 06:45:47;;;;;;;18.08;4.25;;;10.70;99.90;;;;;;5088687;28;20104;-83
2023/12/28 06:48:14;;;;;;;12.70;3.25;;;10.40;99.90;;;;;;5092815;28;20438;-83
2023/12/28 06:50:41;;;;;;;15.05;3.95;;;10.40;99.90;;;;;;5093409;28;20051;-84
2023/12/28 06:53:08;;;;;;;9.70;3.75;;;10.40;99.90;;;;;;5092905;28;20039;-84
2023/12/28 06:55:35;;;;;;;13.75;3.25;;;10.50;99.90;;;;;;5101404;28;20052;-81
2023/12/28 06:58:03;;;;;;;18.00;3.90;;;10.50;99.90;;;;;;5092322;28;20052;-81
2023/12/28 07:00:30;;;;;;;11.77;3.50;;;10.50;99.90;;;;;;5094379;28;20055;-82
2023/12/28 07:02:57;;;;;;;12.88;4.45;;;10.50;99.90;;;;;;5094533;28;20048;-79
2023/12/28 07:05:24;;;;;;;11.52;3.28;;;10.50;99.90;;;;;;5093027;28;20052;-79
2023/12/28 07:07:51;;;;;;;13.68;3.10;;;10.60;99.90;;;;;;5092258;28;20055;-82
2023/12/28 07:10:18;;;;;;;10.57;2.90;;;10.70;99.90;;;;;;5091537;28;20073;-81
2023/12/28 07:12:45;;;;;;;17.40;3.38;;;10.60;99.90;;;;;;5083957;28;20048;-82
2023/12/28 07:15:14;;;;;;;10.13;3.67;;;10.60;99.90;;;;;;5089792;28;20047;-83
2023/12/28 07:17:41;;;;;;;16.42;3.53;;;10.60;99.90;;;;;;5089012;28;20095;-80
2023/12/28 07:20:10;;;;;;;17.65;4.25;;;10.60;99.90;;;;;;5086898;28;20411;-84
2023/12/28 07:22:37;;;;;;;16.75;3.92;;;10.60;99.90;;;;;;5089567;28;20044;-81
2023/12/28 07:25:06;;;;;;;11.23;3.63;;;10.60;99.90;;;;;;5090240;28;20044;-81
2023/12/28 07:27:33;;;;;;;18.02;4.25;;;10.60;99.90;;;;;;5085687;28;20661;-82
2023/12/28 07:29:59;;;;;;;14.55;4.07;;;10.60;99.90;;;;;;5090143;28;20121;-82
2023/12/28 07:32:29;;;;;;;15.82;4.32;;;10.60;99.90;;;;;;5088860;28;20052;-82
2023/12/28 07:34:56;;;;;;;18.77;3.55;;;10.50;99.90;;;;;;5090667;28;20047;-83
2023/12/28 07:37:23;;;;;;;16.00;3.80;;;10.50;99.90;;;;;;5091490;28;20105;-82
2023/12/28 07:39:49;;;;;;;19.95;4.25;;;10.60;99.90;;;;;;5089777;28;20056;-82
2023/12/28 07:42:16;;;;;;;15.43;3.38;;;10.50;99.90;;;;;;5091646;28;20097;-83
2023/12/28 07:44:44;;;;;;;18.70;5.13;;;10.50;99.90;;;;;;5088806;28;20473;-85
2023/12/28 07:47:11;;;;;;;16.50;4.32;;;10.50;99.90;;;;;;5093814;28;20470;-84
2023/12/28 07:49:39;;;;;;;19.73;4.55;;;10.70;99.90;;;;;;5094919;28;20389;-85
2023/12/28 07:52:07;;;;;;;14.18;3.40;;;10.40;99.90;;;;;;5093931;28;20423;-84
2023/12/28 07:54:33;;;;;;;15.95;4.13;;;10.50;99.90;;;;;;5093937;28;20109;-84
2023/12/28 07:57:00;;;;;;;22.73;4.72;;;10.50;99.90;;;;;;5094385;28;20048;-85
2023/12/28 07:59:27;;;;;;;15.23;3.80;;;10.60;99.90;;;;;;5094547;28;20458;-84
2023/12/28 08:01:54;;;;;;;17.20;3.97;;;10.60;99.90;;;;;;5091180;28;20408;-82
2023/12/28 08:04:21;;;;;;;13.65;4.65;;;10.60;99.90;;;;;;5093937;28;20063;-81
2023/12/28 08:06:49;;;;;;;12.70;4.63;;;10.60;99.90;;;;;;5091288;28;20105;-82
2023/12/28 08:09:16;;;;;;;17.33;3.95;;;10.60;99.90;;;;;;5093975;28;20116;-82
2023/12/28 08:11:43;;;;;;;24.60;4.38;;;10.60;99.90;;;;;;5093727;28;20087;-84
2023/12/28 08:14:10;;;;;;;13.75;4.53;;;10.70;99.90;;;;;;5093217;28;20123;-81
2023/12/28 08:16:37;;;;;;;14.85;3.72;;;10.80;99.90;;;;;;5093396;28;20052;-82
2023/12/28 08:19:04;;;;;;;20.52;4.70;;;10.90;99.90;;;;;;5093622;28;20056;-82
2023/12/28 08:21:31;;;;;;;19.17;5.40;;;10.80;99.90;;;;;;5093166;28;20052;-82
2023/12/28 08:23:59;;;;;;;17.02;3.90;;;10.90;99.90;;;;;;5091895;28;20048;-81
2023/12/28 08:26:26;;;;;;;23.05;5.30;;;10.90;99.90;;;;;;5093659;28;20412;-82
2023/12/28 08:28:53;;;;;;;20.05;5.20;;;10.90;99.90;;;;;;5092743;28;20504;-82
2023/12/28 08:31:20;;;;;;;20.08;4.22;;;10.90;99.90;;;;;;5094000;28;20565;-84
2023/12/28 08:33:47;;;;;;;24.25;4.45;;;10.90;99.90;;;;;;5092852;28;20039;-83
2023/12/28 08:36:13;;;;;;;25.38;5.40;;;10.90;99.90;;;;;;5091995;28;20385;-82
2023/12/28 08:38:40;;;;;;;19.05;4.78;;;10.90;99.90;;;;;;5093292;28;20047;-83
2023/12/28 08:41:18;;;;;;;23.35;4.63;;;11.00;99.90;;;;;;5093703;28;20062;-83
2023/12/28 08:43:45;;;;;;;22.85;5.07;;;10.90;99.90;;;;;;5093863;28;20058;-83
2023/12/28 08:46:11;;;;;;;33.42;5.82;;;10.90;99.90;;;;;;5093555;28;20056;-81
2023/12/28 08:48:38;;;;;;;18.67;4.72;;;11.00;99.90;;;;;;5093121;28;20142;-80
2023/12/28 08:51:05;;;;;;;19.17;5.35;;;11.00;99.90;;;;;;5092911;28;20101;-80
2023/12/28 08:53:32;;;;;;;21.92;5.10;;;11.00;99.90;;;;;;5092879;28;20384;-81
2023/12/28 08:55:59;;;;;;;23.60;4.65;;;11.10;99.90;;;;;;5091624;28;20154;-81
2023/12/28 08:58:27;;;;;;;21.63;5.13;;;11.00;99.90;;;;;;5093050;28;20056;-82
2023/12/28 09:00:54;;;;;;;22.13;5.38;;;11.00;99.90;;;;;;5089094;28;20055;-83
2023/12/28 09:03:21;;;;;;;22.35;4.47;;;11.00;99.90;;;;;;5090470;28;20044;-84
2023/12/28 09:05:48;;;;;;;16.90;5.10;;;11.00;99.90;;;;;;5091238;28;20047;-82
2023/12/28 09:08:15;;;;;;;19.20;5.10;;;11.10;99.90;;;;;;5092691;28;20157;-82
2023/12/28 09:10:42;;;;;;;18.92;5.00;;;11.00;99.90;;;;;;5082680;28;20044;-83
2023/12/28 09:13:16;;;;;;;22.00;5.55;;;11.10;99.90;;;;;;5088539;28;20056;-83
2023/12/28 09:15:45;;;;;;;21.17;5.80;;;11.10;99.90;;;;;;5087202;28;20080;-81
2023/12/28 09:18:12;;;;;;;26.15;6.10;;;11.20;99.90;;;;;;5090260;28;20048;-81
2023/12/28 09:20:40;;;;;;;19.65;4.70;;;11.20;99.90;;;;;;5091226;28;20070;-82
2023/12/28 09:23:07;;;;;;;24.15;5.47;;;11.10;99.90;;;;;;5091395;28;20098;-82
2023/12/28 09:25:34;;;;;;;21.73;5.45;;;11.20;99.90;;;;;;5090864;28;20131;-81
2023/12/28 09:28:01;;;;;;;22.27;5.45;;;11.20;99.90;;;;;;5089242;28;20128;-81
2023/12/28 09:30:27;;;;;;;14.40;4.50;;;11.20;99.90;;;;;;5091586;28;20048;-82
2023/12/28 09:32:56;;;;;;;18.80;5.68;;;11.20;99.90;;;;;;5089567;28;20056;-83
2023/12/28 09:35:24;;;;;;;17.33;4.63;;;11.20;99.90;;;;;;5088604;28;20055;-82
2023/12/28 09:37:51;;;;;;;22.00;6.07;;;11.20;99.90;;;;;;5089571;28;20051;-83
2023/12/28 09:40:18;;;;;;;19.60;5.15;;;11.20;99.90;;;;;;5091080;28;20062;-82
2023/12/28 09:42:54;;;;;;;22.63;5.03;;;11.20;99.90;;;;;;5084040;28;20044;-82
2023/12/28 09:45:21;;;;;;;30.70;5.35;;;11.10;99.90;;;;;;5085967;28;20450;-83
2023/12/28 09:47:50;;;;;;;22.15;5.35;;;11.20;99.90;;;;;;5089587;28;20853;-82
2023/12/28 09:50:19;;;;;;;22.60;5.35;;;11.10;99.90;;;;;;5092248;28;20412;-81
2023/12/28 09:52:46;;;;;;;22.95;5.03;;;11.00;99.90;;;;;;5089718;28;20525;-81
2023/12/28 09:55:13;;;;;;;15.38;4.45;;;11.00;99.90;;;;;;5090688;28;20071;-82
2023/12/28 09:57:41;;;;;;;25.50;5.32;;;11.00;99.90;;;;;;5089386;28;20059;-82
2023/12/28 10:00:11;;;;;;;24.95;5.82;;;11.10;99.90;;;;;;5090216;28;20089;-82
2023/12/28 10:02:40;;;;;;;30.23;7.28;;;11.00;99.90;;;;;;5091159;28;20406;-83
2023/12/28 10:05:08;;;;;;;27.33;5.05;;;11.00;99.90;;;;;;5087079;28;20087;-82
2023/12/28 10:07:42;;;;;;;22.40;4.70;;;11.00;99.90;;;;;;5088595;28;20048;-83
2023/12/28 10:10:10;;;;;;;28.25;5.35;;;11.00;99.90;;;;;;5090678;28;20136;-82
2023/12/28 10:12:37;;;;;;;16.88;5.80;;;11.00;99.90;;;;;;5087566;28;20090;-82
2023/12/28 10:15:05;;;;;;;20.40;4.30;;;11.00;99.90;;;;;;5085729;28;20066;-83
2023/12/28 10:17:34;;;;;;;24.40;5.68;;;11.00;99.90;;;;;;5089370;28;20051;-82
2023/12/28 10:20:04;;;;;;;18.45;3.92;;;11.10;99.90;;;;;;5088097;28;20080;-82
2023/12/28 10:22:31;;;;;;;19.13;4.55;;;11.10;99.90;;;;;;5089496;28;20048;-83
2023/12/28 10:25:00;;;;;;;29.08;5.25;;;11.10;99.90;;;;;;5089619;28;20052;-82
2023/12/28 10:27:28;;;;;;;20.60;4.72;;;11.10;99.90;;;;;;5089786;28;20192;-82
2023/12/28 10:29:56;;;;;;;20.63;4.63;;;11.00;99.90;;;;;;5090726;28;20074;-81
2023/12/28 10:32:24;;;;;;;16.70;4.65;;;11.00;99.90;;;;;;5088645;28;20093;-82
2023/12/28 10:34:53;;;;;;;22.33;5.18;;;11.10;99.90;;;;;;5091951;28;20457;-82
2023/12/28 10:37:21;;;;;;;25.27;4.65;;;11.10;99.90;;;;;;5089890;28;20052;-81
2023/12/28 10:39:50;;;;;;;16.42;4.53;;;11.10;99.90;;;;;;5091975;28;20076;-83
2023/12/28 10:42:29;;;;;;;20.65;5.03;;;11.10;99.90;;;;;;5089393;28;20106;-83
2023/12/28 10:45:03;;;;;;;18.90;4.38;;;11.10;99.90;;;;;;5086077;28;20075;-82
2023/12/28 10:47:34;;;;;;;16.40;4.13;;;11.10;99.90;;;;;;5090281;28;20525;-83
2023/12/28 10:50:04;;;;;;;20.38;5.63;;;11.10;99.90;;;;;;5089498;28;20086;-84
2023/12/28 10:52:32;;;;;;;18.67;4.95;;;11.20;99.90;;;;;;5090227;28;20040;-84
2023/12/28 10:55:15;;;;;;;20.48;5.82;;;11.20;99.90;;;;;;5089408;28;20433;-83
2023/12/28 10:57:55;;;;;;;22.35;4.45;;;11.20;99.90;;;;;;5086727;28;20044;-83
2023/12/28 11:00:29;;;;;;;19.85;4.43;;;11.20;99.90;;;;;;5090204;28;20083;-83
2023/12/28 11:03:03;;;;;;;16.90;3.92;;;11.20;99.90;;;;;;5089221;28;20055;-83
2023/12/28 11:05:30;;;;;;;23.02;4.70;;;11.10;99.90;;;;;;5090986;28;20101;-83
2023/12/28 11:08:00;;;;;;;19.67;4.05;;;11.10;99.90;;;;;;5088308;28;20082;-83
2023/12/28 11:10:30;;;;;;;13.75;4.07;;;11.00;99.90;;;;;;5089713;28;20424;-84
2023/12/28 11:13:00;;;;;;;15.30;4.30;;;11.20;99.90;;;;;;5089796;28;20075;-84
2023/12/28 11:15:28;;;;;;;19.42;5.95;;;11.10;99.90;;;;;;5089251;28;20059;-84
2023/12/28 11:17:54;;;;;;;22.90;4.45;;;11.10;99.90;;;;;;5089116;28;20492;-83
2023/12/28 11:20:22;;;;;;;22.48;5.22;;;11.10;99.90;;;;;;5089210;28;20050;-84
2023/12/28 11:22:49;;;;;;;21.08;4.57;;;11.00;99.90;;;;;;5087784;28;20055;-83
2023/12/28 11:25:18;;;;;;;19.58;4.30;;;11.20;99.90;;;;;;5085864;28;20048;-83
2023/12/28 11:27:46;;;;;;;17.00;5.07;;;11.10;99.90;;;;;;5086815;28;20044;-83
2023/12/28 11:30:14;;;;;;;16.35;4.65;;;11.10;99.90;;;;;;5088936;28;20058;-83
2023/12/28 11:32:43;;;;;;;18.85;5.38;;;11.10;99.90;;;;;;5086304;28;20055;-83
2023/12/28 11:35:13;;;;;;;13.40;4.43;;;11.20;99.90;;;;;;5087217;28;20478;-83
2023/12/28 11:37:44;;;;;;;17.15;4.97;;;11.20;99.90;;;;;;5085674;28;20587;-82
2023/12/28 11:40:13;;;;;;;20.73;5.55;;;11.10;99.90;;;;;;5088289;28;20048;-82
2023/12/28 11:42:50;;;;;;;21.48;4.35;;;11.20;99.90;;;;;;5087610;28;20123;-82
2023/12/28 11:45:19;;;;;;;18.27;5.38;;;11.00;99.90;;;;;;5089770;28;20082;-84
2023/12/28 11:47:46;;;;;;;16.35;4.28;;;11.20;99.90;;;;;;5088951;28;20106;-82
2023/12/28 11:50:14;;;;;;;14.27;4.38;;;11.00;99.90;;;;;;5089650;28;20044;-83
2023/12/28 11:52:41;;;;;;;18.48;4.32;;;10.90;99.90;;;;;;5088795;28;20048;-82
2023/12/28 11:55:08;;;;;;;15.82;4.70;;;10.90;99.90;;;;;;5087345;28;20400;-82
2023/12/28 11:57:37;;;;;;;14.88;5.15;;;10.90;99.90;;;;;;5087225;28;20059;-82
2023/12/28 12:00:07;;;;;;;17.40;4.32;;;11.00;99.90;;;;;;5084014;28;20726;-82
2023/12/28 12:02:35;;;;;;;18.40;4.88;;;10.90;99.90;;;;;;5087869;28;20097;-82
2023/12/28 12:05:02;;;;;;;22.10;5.50;;;10.90;99.90;;;;;;5087909;28;20113;-82
2023/12/28 12:07:30;;;;;;;18.02;4.55;;;10.90;99.90;;;;;;5086757;28;20487;-82
2023/12/28 12:09:57;;;;;;;17.08;4.88;;;10.90;99.90;;;;;;5089699;28;20515;-82
2023/12/28 12:12:24;;;;;;;18.75;5.40;;;11.00;99.90;;;;;;5088331;28;20091;-82
2023/12/28 12:14:51;;;;;;;21.02;4.60;;;10.90;99.90;;;;;;5085958;28;20646;-82
2023/12/28 12:17:19;;;;;;;19.83;5.22;;;10.80;99.90;;;;;;5087799;28;20101;-82
2023/12/28 12:19:48;;;;;;;18.90;4.88;;;10.80;99.90;;;;;;5088311;28;20053;-83
2023/12/28 12:22:16;;;;;;;31.45;5.70;;;10.80;99.90;;;;;;5086415;28;20450;-82
2023/12/28 12:24:45;;;;;;;20.13;5.35;;;10.80;99.90;;;;;;5089559;28;20480;-83
2023/12/28 12:27:12;;;;;;;22.15;5.03;;;10.70;99.90;;;;;;5086723;28;20629;-82
2023/12/28 12:29:39;;;;;;;23.13;6.20;;;10.70;99.90;;;;;;5087441;28;20044;-86
2023/12/28 12:32:07;;;;;;;18.15;5.40;;;10.70;99.90;;;;;;5089867;28;20450;-85
2023/12/28 12:34:34;;;;;;;23.52;5.93;;;10.70;99.90;;;;;;5092524;28;20046;-85
2023/12/28 12:37:02;;;;;;;28.20;5.47;;;10.80;99.90;;;;;;5092403;28;20052;-85
2023/12/28 12:39:30;;;;;;;21.98;5.53;;;10.90;99.90;;;;;;5093213;28;20717;-86
2023/12/28 12:41:57;;;;;;;18.27;6.05;;;10.90;99.90;;;;;;5090414;28;20082;-82
2023/12/28 12:44:24;;;;;;;25.83;5.80;;;11.00;99.90;;;;;;5092597;28;20131;-82
2023/12/28 12:46:58;;;;;;;22.83;5.55;;;10.90;99.90;;;;;;5091176;28;20446;-83